createdAt,value
2017-09-04T00:00:15.868Z,0
2017-09-04T00:01:16.484Z,0
2017-09-04T00:02:17.093Z,0
2017-09-04T00:03:17.709Z,0
2017-09-04T00:04:18.466Z,0
2017-09-04T00:05:19.077Z,0
2017-09-04T00:06:19.686Z,0
2017-09-04T00:07:20.299Z,0
2017-09-04T00:08:20.909Z,0
2017-09-04T00:09:21.670Z,0
2017-09-04T00:10:22.285Z,0
2017-09-04T00:11:22.894Z,0
2017-09-04T00:12:23.504Z,0
2017-09-04T00:13:24.116Z,0
2017-09-04T00:14:24.876Z,0
2017-09-04T00:15:25.487Z,0
2017-09-04T00:16:26.097Z,0
2017-09-04T00:17:26.745Z,0
2017-09-04T00:18:27.392Z,0
2017-09-04T00:19:28.156Z,0
2017-09-04T00:20:28.768Z,0
2017-09-04T00:21:29.412Z,0
2017-09-04T00:22:30.021Z,0
2017-09-04T00:23:30.633Z,0
2017-09-04T00:24:31.445Z,0
2017-09-04T00:25:32.055Z,0
2017-09-04T00:26:32.672Z,0
2017-09-04T00:27:33.314Z,0
2017-09-04T00:28:33.931Z,0
2017-09-04T00:29:34.689Z,0
2017-09-04T00:30:35.300Z,0
2017-09-04T00:31:35.944Z,0
2017-09-04T00:32:36.554Z,0
2017-09-04T00:33:37.165Z,0
2017-09-04T00:34:37.776Z,0
2017-09-04T00:35:38.386Z,0
2017-09-04T00:36:39.147Z,0
2017-09-04T00:37:39.762Z,0
2017-09-04T00:38:40.370Z,0
2017-09-04T00:39:40.980Z,0
2017-09-04T00:40:41.597Z,0
2017-09-04T00:41:42.355Z,0
2017-09-04T00:42:42.966Z,0
2017-09-04T00:43:43.582Z,0
2017-09-04T00:44:44.190Z,0
2017-09-04T00:45:44.832Z,0
2017-09-04T00:46:45.643Z,0
2017-09-04T00:47:46.256Z,0
2017-09-04T00:48:46.865Z,0
2017-09-04T00:49:47.475Z,0
2017-09-04T00:50:48.085Z,0
2017-09-04T00:51:48.847Z,0
2017-09-04T00:52:49.464Z,0
2017-09-04T00:53:50.076Z,0
2017-09-04T00:54:50.689Z,0
2017-09-04T00:55:51.331Z,0
2017-09-04T00:56:52.094Z,0
2017-09-04T00:57:52.705Z,0
2017-09-04T00:58:53.321Z,0
2017-09-04T00:59:53.934Z,0
2017-09-04T01:00:54.543Z,0
2017-09-04T01:01:55.308Z,0
2017-09-04T01:02:55.917Z,0
2017-09-04T01:03:56.529Z,0
2017-09-04T01:04:57.142Z,0
2017-09-04T01:05:57.752Z,0
2017-09-04T01:06:58.553Z,0
2017-09-04T01:07:59.157Z,0
2017-09-04T01:08:59.802Z,0
2017-09-04T01:10:00.441Z,0
2017-09-04T01:11:01.052Z,0
2017-09-04T01:12:01.817Z,0
2017-09-04T01:13:02.431Z,0
2017-09-04T01:14:03.038Z,0
2017-09-04T01:15:03.654Z,0
2017-09-04T01:16:04.262Z,0
2017-09-04T01:17:05.059Z,0
2017-09-04T01:18:05.667Z,0
2017-09-04T01:19:06.277Z,0
2017-09-04T01:20:06.888Z,0
2017-09-04T01:21:07.499Z,0
2017-09-04T01:22:08.290Z,0
2017-09-04T01:23:08.909Z,0
2017-09-04T01:24:09.518Z,0
2017-09-04T01:25:10.127Z,0
2017-09-04T01:26:10.739Z,0
2017-09-04T01:27:11.502Z,0
2017-09-04T01:28:12.114Z,0
2017-09-04T01:29:12.757Z,0
2017-09-04T01:30:13.370Z,0
2017-09-04T01:31:14.012Z,0
2017-09-04T01:32:14.808Z,0
2017-09-04T01:33:15.420Z,0
2017-09-04T01:34:16.062Z,0
2017-09-04T01:35:16.673Z,0
2017-09-04T01:36:17.284Z,0
2017-09-04T01:37:18.082Z,0
2017-09-04T01:38:18.696Z,0
2017-09-04T01:39:19.303Z,0
2017-09-04T01:40:19.919Z,0
2017-09-04T01:41:20.525Z,0
2017-09-04T01:42:21.292Z,0
2017-09-04T01:43:21.900Z,0
2017-09-04T01:44:22.511Z,0
2017-09-04T01:45:23.123Z,0
2017-09-04T01:46:23.733Z,0
2017-09-04T01:47:24.494Z,0
2017-09-04T01:48:25.105Z,0
2017-09-04T01:49:25.716Z,0
2017-09-04T01:50:26.327Z,0
2017-09-04T01:51:26.937Z,0
2017-09-04T01:52:27.547Z,0
2017-09-04T01:53:28.157Z,0
2017-09-04T01:54:28.952Z,0
2017-09-04T01:55:29.564Z,0
2017-09-04T01:56:30.175Z,0
2017-09-04T01:57:30.786Z,0
2017-09-04T01:58:31.400Z,0
2017-09-04T01:59:32.165Z,0
2017-09-04T02:00:32.771Z,0
2017-09-04T02:01:33.382Z,0
2017-09-04T02:02:33.998Z,0
2017-09-04T02:03:34.608Z,0
2017-09-04T02:04:35.370Z,0
2017-09-04T02:05:35.982Z,0
2017-09-04T02:06:36.624Z,0
2017-09-04T02:07:37.234Z,0
2017-09-04T02:08:37.851Z,0
2017-09-04T02:09:38.613Z,0
2017-09-04T02:10:39.222Z,0
2017-09-04T02:11:39.832Z,0
2017-09-04T02:12:40.443Z,0
2017-09-04T02:13:41.060Z,0
2017-09-04T02:14:41.819Z,0
2017-09-04T02:15:42.436Z,0
2017-09-04T02:16:43.045Z,0
2017-09-04T02:17:43.687Z,0
2017-09-04T02:18:44.299Z,0
2017-09-04T02:19:45.094Z,0
2017-09-04T02:20:45.711Z,0
2017-09-04T02:21:46.354Z,0
2017-09-04T02:22:46.970Z,0
2017-09-04T02:23:47.575Z,0
2017-09-04T02:24:48.335Z,0
2017-09-04T02:25:48.945Z,0
2017-09-04T02:26:49.562Z,0
2017-09-04T02:27:50.175Z,0
2017-09-04T02:28:50.788Z,0
2017-09-04T02:29:51.647Z,0
2017-09-04T02:30:52.260Z,0
2017-09-04T02:31:52.872Z,0
2017-09-04T02:32:53.482Z,0
2017-09-04T02:33:54.095Z,0
2017-09-04T02:34:54.856Z,0
2017-09-04T02:35:55.467Z,0
2017-09-04T02:36:56.085Z,0
2017-09-04T02:37:56.692Z,0
2017-09-04T02:38:57.333Z,0
2017-09-04T02:39:58.096Z,0
2017-09-04T02:40:58.712Z,0
2017-09-04T02:41:59.324Z,0
2017-09-04T02:42:59.932Z,0
2017-09-04T02:44:00.546Z,0
2017-09-04T02:45:01.306Z,0
2017-09-04T02:46:01.919Z,0
2017-09-04T02:47:02.535Z,0
2017-09-04T02:48:03.143Z,0
2017-09-04T02:49:03.753Z,0
2017-09-04T02:50:04.513Z,0
2017-09-04T02:51:05.163Z,0
2017-09-04T02:52:05.771Z,0
2017-09-04T02:53:06.416Z,0
2017-09-04T02:54:07.025Z,0
2017-09-04T02:55:07.821Z,0
2017-09-04T02:56:08.431Z,0
2017-09-04T02:57:09.042Z,0
2017-09-04T02:58:09.653Z,0
2017-09-04T02:59:10.271Z,0
2017-09-04T03:00:11.030Z,0
2017-09-04T03:01:11.642Z,0
2017-09-04T03:02:12.261Z,0
2017-09-04T03:03:12.868Z,0
2017-09-04T03:04:13.481Z,0
2017-09-04T03:05:14.242Z,0
2017-09-04T03:06:14.853Z,0
2017-09-04T03:07:15.468Z,0
2017-09-04T03:08:16.078Z,0
2017-09-04T03:09:16.724Z,0
2017-09-04T03:10:17.482Z,0
2017-09-04T03:11:18.105Z,0
2017-09-04T03:12:18.744Z,0
2017-09-04T03:13:19.355Z,0
2017-09-04T03:14:19.964Z,0
2017-09-04T03:15:20.732Z,0
2017-09-04T03:16:21.340Z,0
2017-09-04T03:17:21.950Z,0
2017-09-04T03:18:22.562Z,0
2017-09-04T03:19:23.174Z,0
2017-09-04T03:20:23.940Z,0
2017-09-04T03:21:24.547Z,0
2017-09-04T03:22:25.162Z,0
2017-09-04T03:23:25.772Z,0
2017-09-04T03:24:26.383Z,0
2017-09-04T03:25:26.992Z,0
2017-09-04T03:26:27.602Z,0
2017-09-04T03:27:28.212Z,0
2017-09-04T03:28:28.826Z,0
2017-09-04T03:29:29.603Z,0
2017-09-04T03:30:30.198Z,0
2017-09-04T03:31:30.808Z,0
2017-09-04T03:32:31.426Z,0
2017-09-04T03:33:32.040Z,0
2017-09-04T03:34:32.832Z,0
2017-09-04T03:35:33.441Z,0
2017-09-04T03:36:34.053Z,0
2017-09-04T03:37:34.670Z,0
2017-09-04T03:38:35.278Z,0
2017-09-04T03:39:36.042Z,0
2017-09-04T03:40:36.654Z,0
2017-09-04T03:41:37.271Z,0
2017-09-04T03:42:37.879Z,0
2017-09-04T03:43:38.490Z,0
2017-09-04T03:44:39.251Z,0
2017-09-04T03:45:39.862Z,0
2017-09-04T03:46:40.472Z,0
2017-09-04T03:47:41.121Z,0
2017-09-04T03:48:41.728Z,0
2017-09-04T03:49:42.489Z,0
2017-09-04T03:50:43.107Z,0
2017-09-04T03:51:43.714Z,0
2017-09-04T03:52:44.332Z,0
2017-09-04T03:53:44.939Z,0
2017-09-04T03:54:45.549Z,0
2017-09-04T03:55:46.315Z,0
2017-09-04T03:56:46.924Z,0
2017-09-04T03:57:47.541Z,0
2017-09-04T03:58:48.148Z,0
2017-09-04T03:59:48.792Z,0
2017-09-04T04:00:49.551Z,0
2017-09-04T04:01:50.163Z,0
2017-09-04T04:02:50.773Z,0
2017-09-04T04:03:51.384Z,0
2017-09-04T04:04:52.000Z,0
2017-09-04T04:05:52.608Z,0
2017-09-04T04:06:53.217Z,0
2017-09-04T04:07:53.979Z,0
2017-09-04T04:08:54.595Z,0
2017-09-04T04:09:55.202Z,0
2017-09-04T04:10:55.814Z,0
2017-09-04T04:11:56.426Z,0
2017-09-04T04:12:57.219Z,0
2017-09-04T04:13:57.831Z,0
2017-09-04T04:14:58.440Z,0
2017-09-04T04:15:59.056Z,0
2017-09-04T04:16:59.663Z,0
2017-09-04T04:18:00.427Z,0
2017-09-04T04:19:01.072Z,0
2017-09-04T04:20:01.715Z,0
2017-09-04T04:21:02.357Z,0
2017-09-04T04:22:02.980Z,0
2017-09-04T04:23:03.730Z,0
2017-09-04T04:24:04.373Z,0
2017-09-04T04:25:04.983Z,0
2017-09-04T04:26:05.595Z,0
2017-09-04T04:27:06.207Z,0
2017-09-04T04:28:06.967Z,0
2017-09-04T04:29:07.608Z,0
2017-09-04T04:30:08.220Z,0
2017-09-04T04:31:08.830Z,0
2017-09-04T04:32:09.446Z,0
2017-09-04T04:33:10.207Z,0
2017-09-04T04:34:10.856Z,0
2017-09-04T04:35:11.462Z,0
2017-09-04T04:36:12.077Z,0
2017-09-04T04:37:12.695Z,0
2017-09-04T04:38:13.456Z,0
2017-09-04T04:39:14.067Z,0
2017-09-04T04:40:14.708Z,0
2017-09-04T04:41:15.325Z,0
2017-09-04T04:42:15.934Z,0
2017-09-04T04:43:16.696Z,0
2017-09-04T04:44:17.308Z,0
2017-09-04T04:45:17.948Z,4
2017-09-04T04:46:18.560Z,0
2017-09-04T04:47:19.169Z,0
2017-09-04T04:48:19.786Z,0
2017-09-04T04:49:20.547Z,0
2017-09-04T04:50:21.156Z,0
2017-09-04T04:51:21.798Z,0
2017-09-04T04:52:22.413Z,0
2017-09-04T04:53:23.055Z,0
2017-09-04T04:54:23.815Z,0
2017-09-04T04:55:24.425Z,0
2017-09-04T04:56:25.037Z,4
2017-09-04T04:57:25.678Z,0
2017-09-04T04:58:26.287Z,0
2017-09-04T04:59:27.049Z,0
2017-09-04T05:00:27.667Z,4
2017-09-04T05:01:28.274Z,4
2017-09-04T05:02:28.885Z,4
2017-09-04T05:03:29.496Z,4
2017-09-04T05:04:30.257Z,4
2017-09-04T05:05:30.906Z,4
2017-09-04T05:06:31.517Z,4
2017-09-04T05:07:32.132Z,8
2017-09-04T05:08:32.741Z,4
2017-09-04T05:09:33.507Z,8
2017-09-04T05:10:34.153Z,8
2017-09-04T05:11:34.761Z,8
2017-09-04T05:12:35.371Z,8
2017-09-04T05:13:35.988Z,8
2017-09-04T05:14:36.751Z,8
2017-09-04T05:15:37.358Z,8
2017-09-04T05:16:37.975Z,8
2017-09-04T05:17:38.584Z,8
2017-09-04T05:18:39.224Z,8
2017-09-04T05:19:39.986Z,12
2017-09-04T05:20:40.603Z,12
2017-09-04T05:21:41.244Z,8
2017-09-04T05:22:41.863Z,12
2017-09-04T05:23:42.477Z,12
2017-09-04T05:24:43.270Z,12
2017-09-04T05:25:43.884Z,12
2017-09-04T05:26:44.529Z,12
2017-09-04T05:27:45.142Z,16
2017-09-04T05:28:45.753Z,12
2017-09-04T05:29:46.520Z,12
2017-09-04T05:30:47.130Z,16
2017-09-04T05:31:47.747Z,16
2017-09-04T05:32:48.357Z,20
2017-09-04T05:33:48.969Z,20
2017-09-04T05:34:49.729Z,20
2017-09-04T05:35:50.341Z,20
2017-09-04T05:36:50.953Z,20
2017-09-04T05:37:51.571Z,24
2017-09-04T05:38:52.180Z,24
2017-09-04T05:39:52.941Z,28
2017-09-04T05:40:53.553Z,28
2017-09-04T05:41:54.196Z,32
2017-09-04T05:42:54.839Z,32
2017-09-04T05:43:55.454Z,32
2017-09-04T05:44:56.067Z,32
2017-09-04T05:45:56.828Z,36
2017-09-04T05:46:57.479Z,36
2017-09-04T05:47:58.090Z,36
2017-09-04T05:48:58.702Z,36
2017-09-04T05:49:59.344Z,40
2017-09-04T05:51:00.108Z,40
2017-09-04T05:52:00.722Z,44
2017-09-04T05:53:01.339Z,48
2017-09-04T05:54:01.954Z,48
2017-09-04T05:55:02.568Z,56
2017-09-04T05:56:03.332Z,56
2017-09-04T05:57:03.939Z,60
2017-09-04T05:58:04.550Z,60
2017-09-04T05:59:05.168Z,60
2017-09-04T06:00:05.779Z,60
2017-09-04T06:01:06.543Z,60
2017-09-04T06:02:07.160Z,60
2017-09-04T06:03:07.776Z,60
2017-09-04T06:04:08.394Z,60
2017-09-04T06:05:09.035Z,60
2017-09-04T06:06:09.802Z,60
2017-09-04T06:07:10.420Z,60
2017-09-04T06:08:11.028Z,60
2017-09-04T06:09:11.641Z,64
2017-09-04T06:10:12.254Z,64
2017-09-04T06:11:13.020Z,68
2017-09-04T06:12:13.664Z,68
2017-09-04T06:13:14.275Z,68
2017-09-04T06:14:14.889Z,72
2017-09-04T06:15:15.501Z,72
2017-09-04T06:16:16.263Z,72
2017-09-04T06:17:16.876Z,68
2017-09-04T06:18:17.488Z,68
2017-09-04T06:19:18.105Z,64
2017-09-04T06:20:18.718Z,68
2017-09-04T06:21:19.483Z,68
2017-09-04T06:22:20.093Z,68
2017-09-04T06:23:20.710Z,68
2017-09-04T06:24:21.326Z,68
2017-09-04T06:25:21.934Z,64
2017-09-04T06:26:22.698Z,68
2017-09-04T06:27:23.317Z,68
2017-09-04T06:28:23.930Z,72
2017-09-04T06:29:24.580Z,76
2017-09-04T06:30:25.227Z,76
2017-09-04T06:31:25.987Z,76
2017-09-04T06:32:26.601Z,80
2017-09-04T06:33:27.213Z,76
2017-09-04T06:34:27.830Z,76
2017-09-04T06:35:28.440Z,76
2017-09-04T06:36:29.204Z,80
2017-09-04T06:37:29.813Z,84
2017-09-04T06:38:30.426Z,80
2017-09-04T06:39:31.068Z,80
2017-09-04T06:40:31.680Z,76
2017-09-04T06:41:32.452Z,76
2017-09-04T06:42:33.094Z,76
2017-09-04T06:43:33.704Z,76
2017-09-04T06:44:34.321Z,76
2017-09-04T06:45:34.932Z,80
2017-09-04T06:46:35.693Z,80
2017-09-04T06:47:36.305Z,80
2017-09-04T06:48:36.917Z,80
2017-09-04T06:49:37.534Z,80
2017-09-04T06:50:38.177Z,80
2017-09-04T06:51:38.937Z,84
2017-09-04T06:52:39.550Z,84
2017-09-04T06:53:40.162Z,88
2017-09-04T06:54:40.779Z,88
2017-09-04T06:55:41.389Z,88
2017-09-04T06:56:42.151Z,92
2017-09-04T06:57:42.767Z,92
2017-09-04T06:58:43.378Z,92
2017-09-04T06:59:43.997Z,96
2017-09-04T07:00:44.608Z,96
2017-09-04T07:01:45.371Z,100
2017-09-04T07:02:45.993Z,104
2017-09-04T07:03:46.609Z,108
2017-09-04T07:04:47.226Z,112
2017-09-04T07:05:47.837Z,116
2017-09-04T07:06:48.602Z,120
2017-09-04T07:07:49.216Z,128
2017-09-04T07:08:49.828Z,128
2017-09-04T07:09:50.444Z,128
2017-09-04T07:10:51.065Z,128
2017-09-04T07:11:51.826Z,128
2017-09-04T07:12:52.441Z,132
2017-09-04T07:13:53.087Z,128
2017-09-04T07:14:53.706Z,132
2017-09-04T07:15:54.318Z,128
2017-09-04T07:16:55.084Z,128
2017-09-04T07:17:55.696Z,124
2017-09-04T07:18:56.341Z,128
2017-09-04T07:19:56.955Z,124
2017-09-04T07:20:57.569Z,124
2017-09-04T07:21:58.338Z,120
2017-09-04T07:22:58.955Z,124
2017-09-04T07:23:59.565Z,132
2017-09-04T07:25:00.183Z,132
2017-09-04T07:26:00.798Z,136
2017-09-04T07:27:01.562Z,136
2017-09-04T07:28:02.176Z,132
2017-09-04T07:29:02.789Z,128
2017-09-04T07:30:03.435Z,128
2017-09-04T07:31:04.050Z,128
2017-09-04T07:32:04.845Z,124
2017-09-04T07:33:05.470Z,124
2017-09-04T07:34:06.077Z,124
2017-09-04T07:35:06.693Z,120
2017-09-04T07:36:07.307Z,124
2017-09-04T07:37:08.105Z,120
2017-09-04T07:38:08.723Z,120
2017-09-04T07:39:09.335Z,124
2017-09-04T07:40:09.980Z,124
2017-09-04T07:41:10.594Z,128
2017-09-04T07:42:11.363Z,132
2017-09-04T07:43:11.974Z,132
2017-09-04T07:44:12.593Z,140
2017-09-04T07:45:13.207Z,136
2017-09-04T07:46:13.826Z,132
2017-09-04T07:47:14.591Z,136
2017-09-04T07:48:15.204Z,136
2017-09-04T07:49:15.818Z,144
2017-09-04T07:50:16.438Z,148
2017-09-04T07:51:17.054Z,152
2017-09-04T07:52:17.850Z,148
2017-09-04T07:53:18.471Z,148
2017-09-04T07:54:19.088Z,144
2017-09-04T07:55:19.706Z,148
2017-09-04T07:56:20.324Z,148
2017-09-04T07:57:21.086Z,148
2017-09-04T07:58:21.701Z,148
2017-09-04T07:59:22.313Z,148
2017-09-04T08:00:22.929Z,144
2017-09-04T08:01:23.574Z,140
2017-09-04T08:02:24.344Z,136
2017-09-04T08:03:24.956Z,136
2017-09-04T08:04:25.577Z,136
2017-09-04T08:05:26.188Z,144
2017-09-04T08:06:26.809Z,140
2017-09-04T08:07:27.570Z,144
2017-09-04T08:08:28.188Z,144
2017-09-04T08:09:28.835Z,140
2017-09-04T08:10:29.448Z,140
2017-09-04T08:11:30.067Z,140
2017-09-04T08:12:30.832Z,140
2017-09-04T08:13:31.481Z,144
2017-09-04T08:14:32.096Z,148
2017-09-04T08:15:32.715Z,148
2017-09-04T08:16:33.326Z,148
2017-09-04T08:17:34.092Z,148
2017-09-04T08:18:34.713Z,152
2017-09-04T08:19:35.365Z,152
2017-09-04T08:20:35.978Z,152
2017-09-04T08:21:36.592Z,152
2017-09-04T08:22:37.359Z,152
2017-09-04T08:23:37.981Z,152
2017-09-04T08:24:38.598Z,152
2017-09-04T08:25:39.209Z,156
2017-09-04T08:26:39.823Z,156
2017-09-04T08:27:40.588Z,156
2017-09-04T08:28:41.240Z,160
2017-09-04T08:29:41.857Z,160
2017-09-04T08:30:42.470Z,160
2017-09-04T08:31:43.085Z,160
2017-09-04T08:32:43.855Z,160
2017-09-04T08:33:44.469Z,160
2017-09-04T08:34:45.084Z,164
2017-09-04T08:35:45.698Z,164
2017-09-04T08:36:46.318Z,164
2017-09-04T08:37:47.078Z,168
2017-09-04T08:38:47.700Z,164
2017-09-04T08:39:48.311Z,160
2017-09-04T08:40:48.957Z,164
2017-09-04T08:41:49.576Z,168
2017-09-04T08:42:50.369Z,164
2017-09-04T08:43:50.984Z,164
2017-09-04T08:44:51.629Z,164
2017-09-04T08:45:52.246Z,164
2017-09-04T08:46:52.858Z,164
2017-09-04T08:47:53.657Z,168
2017-09-04T08:48:54.279Z,168
2017-09-04T08:49:54.925Z,172
2017-09-04T08:50:55.539Z,172
2017-09-04T08:51:56.160Z,176
2017-09-04T08:52:56.924Z,180
2017-09-04T08:53:57.545Z,188
2017-09-04T08:54:58.159Z,196
2017-09-04T08:55:58.777Z,200
2017-09-04T08:56:59.392Z,204
2017-09-04T08:58:00.163Z,208
2017-09-04T08:59:00.777Z,208
2017-09-04T09:00:01.393Z,212
2017-09-04T09:01:02.017Z,212
2017-09-04T09:02:02.666Z,220
2017-09-04T09:03:03.438Z,224
2017-09-04T09:04:04.054Z,220
2017-09-04T09:05:04.671Z,224
2017-09-04T09:06:05.290Z,224
2017-09-04T09:07:05.903Z,228
2017-09-04T09:08:06.676Z,232
2017-09-04T09:09:07.288Z,236
2017-09-04T09:10:07.908Z,244
2017-09-04T09:11:08.523Z,248
2017-09-04T09:12:09.141Z,256
2017-09-04T09:13:09.912Z,264
2017-09-04T09:14:10.526Z,272
2017-09-04T09:15:11.142Z,284
2017-09-04T09:16:11.758Z,292
2017-09-04T09:17:12.398Z,296
2017-09-04T09:18:13.160Z,296
2017-09-04T09:19:13.780Z,288
2017-09-04T09:20:14.402Z,280
2017-09-04T09:21:15.015Z,280
2017-09-04T09:22:15.636Z,292
2017-09-04T09:23:16.400Z,304
2017-09-04T09:24:17.049Z,304
2017-09-04T09:25:17.668Z,304
2017-09-04T09:26:18.283Z,308
2017-09-04T09:27:18.902Z,308
2017-09-04T09:28:19.668Z,308
2017-09-04T09:29:20.291Z,300
2017-09-04T09:30:20.906Z,304
2017-09-04T09:31:21.523Z,300
2017-09-04T09:32:22.144Z,292
2017-09-04T09:33:22.915Z,280
2017-09-04T09:34:23.565Z,276
2017-09-04T09:35:24.186Z,284
2017-09-04T09:36:24.799Z,288
2017-09-04T09:37:25.445Z,300
2017-09-04T09:38:26.192Z,312
2017-09-04T09:39:26.805Z,320
2017-09-04T09:40:27.423Z,324
2017-09-04T09:41:28.039Z,336
2017-09-04T09:42:28.655Z,332
2017-09-04T09:43:29.424Z,328
2017-09-04T09:44:30.040Z,336
2017-09-04T09:45:30.688Z,348
2017-09-04T09:46:31.303Z,344
2017-09-04T09:47:31.926Z,340
2017-09-04T09:48:32.691Z,356
2017-09-04T09:49:33.308Z,364
2017-09-04T09:50:33.929Z,364
2017-09-04T09:51:34.544Z,352
2017-09-04T09:52:35.166Z,344
2017-09-04T09:53:35.935Z,336
2017-09-04T09:54:36.556Z,336
2017-09-04T09:55:37.175Z,336
2017-09-04T09:56:37.790Z,340
2017-09-04T09:57:38.407Z,344
2017-09-04T09:58:39.207Z,352
2017-09-04T09:59:39.824Z,356
2017-09-04T10:00:40.455Z,364
2017-09-04T10:01:41.064Z,380
2017-09-04T10:02:41.683Z,396
2017-09-04T10:03:42.297Z,396
2017-09-04T10:04:42.921Z,388
2017-09-04T10:05:43.685Z,376
2017-09-04T10:06:44.309Z,348
2017-09-04T10:07:44.929Z,340
2017-09-04T10:08:45.542Z,340
2017-09-04T10:09:46.160Z,352
2017-09-04T10:10:46.926Z,352
2017-09-04T10:11:47.544Z,348
2017-09-04T10:12:48.159Z,336
2017-09-04T10:13:48.784Z,320
2017-09-04T10:14:49.404Z,304
2017-09-04T10:15:50.167Z,288
2017-09-04T10:16:50.790Z,280
2017-09-04T10:17:51.410Z,268
2017-09-04T10:18:52.029Z,260
2017-09-04T10:19:52.651Z,248
2017-09-04T10:20:53.415Z,240
2017-09-04T10:21:54.033Z,232
2017-09-04T10:22:54.651Z,232
2017-09-04T10:23:55.273Z,232
2017-09-04T10:24:55.893Z,236
2017-09-04T10:25:56.658Z,236
2017-09-04T10:26:57.275Z,236
2017-09-04T10:27:57.923Z,236
2017-09-04T10:28:58.542Z,240
2017-09-04T10:29:59.158Z,240
2017-09-04T10:30:59.933Z,240
2017-09-04T10:32:00.548Z,236
2017-09-04T10:33:01.165Z,228
2017-09-04T10:34:01.786Z,224
2017-09-04T10:35:02.404Z,220
2017-09-04T10:36:03.175Z,220
2017-09-04T10:37:03.790Z,224
2017-09-04T10:38:04.408Z,224
2017-09-04T10:39:05.024Z,220
2017-09-04T10:40:05.643Z,220
2017-09-04T10:41:06.261Z,216
2017-09-04T10:42:07.029Z,220
2017-09-04T10:43:07.677Z,224
2017-09-04T10:44:08.293Z,224
2017-09-04T10:45:08.914Z,232
2017-09-04T10:46:09.533Z,232
2017-09-04T10:47:10.149Z,244
2017-09-04T10:48:10.917Z,264
2017-09-04T10:49:11.533Z,276
2017-09-04T10:50:12.160Z,272
2017-09-04T10:51:12.772Z,276
2017-09-04T10:52:13.422Z,272
2017-09-04T10:53:14.195Z,268
2017-09-04T10:54:14.815Z,268
2017-09-04T10:55:15.431Z,260
2017-09-04T10:56:16.081Z,252
2017-09-04T10:57:16.698Z,256
2017-09-04T10:58:17.504Z,260
2017-09-04T10:59:18.120Z,264
2017-09-04T11:00:18.738Z,264
2017-09-04T11:01:19.361Z,260
2017-09-04T11:02:19.976Z,256
2017-09-04T11:03:20.749Z,248
2017-09-04T11:04:21.364Z,240
2017-09-04T11:05:21.987Z,240
2017-09-04T11:06:22.608Z,240
2017-09-04T11:07:23.261Z,236
2017-09-04T11:08:23.879Z,236
2017-09-04T11:09:24.497Z,244
2017-09-04T11:10:25.116Z,248
2017-09-04T11:11:25.739Z,252
2017-09-04T11:12:26.510Z,260
2017-09-04T11:13:27.129Z,260
2017-09-04T11:14:27.749Z,260
2017-09-04T11:15:28.363Z,252
2017-09-04T11:16:28.983Z,240
2017-09-04T11:17:29.755Z,224
2017-09-04T11:18:30.372Z,212
2017-09-04T11:19:30.989Z,204
2017-09-04T11:20:31.607Z,200
2017-09-04T11:21:32.229Z,208
2017-09-04T11:22:33.028Z,224
2017-09-04T11:23:33.652Z,240
2017-09-04T11:24:34.266Z,232
2017-09-04T11:25:34.888Z,236
2017-09-04T11:26:35.548Z,236
2017-09-04T11:27:36.345Z,236
2017-09-04T11:28:36.962Z,232
2017-09-04T11:29:37.581Z,232
2017-09-04T11:30:38.198Z,224
2017-09-04T11:31:38.852Z,216
2017-09-04T11:32:39.618Z,208
2017-09-04T11:33:40.234Z,204
2017-09-04T11:34:40.867Z,208
2017-09-04T11:35:41.504Z,212
2017-09-04T11:36:42.151Z,216
2017-09-04T11:37:42.918Z,220
2017-09-04T11:38:43.536Z,228
2017-09-04T11:39:44.152Z,240
2017-09-04T11:40:44.777Z,252
2017-09-04T11:41:45.387Z,260
2017-09-04T11:42:46.161Z,264
2017-09-04T11:43:46.776Z,260
2017-09-04T11:44:47.395Z,256
2017-09-04T11:45:48.017Z,248
2017-09-04T11:46:48.632Z,236
2017-09-04T11:47:49.399Z,224
2017-09-04T11:48:50.017Z,216
2017-09-04T11:49:50.640Z,212
2017-09-04T11:50:51.256Z,212
2017-09-04T11:51:51.874Z,216
2017-09-04T11:52:52.647Z,220
2017-09-04T11:53:53.264Z,224
2017-09-04T11:54:53.881Z,228
2017-09-04T11:55:54.505Z,224
2017-09-04T11:56:55.124Z,220
2017-09-04T11:57:55.895Z,224
2017-09-04T11:58:56.512Z,224
2017-09-04T11:59:57.129Z,224
2017-09-04T12:00:57.747Z,224
2017-09-04T12:01:58.364Z,224
2017-09-04T12:02:59.130Z,220
2017-09-04T12:03:59.753Z,220
2017-09-04T12:05:00.377Z,220
2017-09-04T12:06:01.022Z,220
2017-09-04T12:07:01.643Z,228
2017-09-04T12:08:02.415Z,232
2017-09-04T12:09:03.033Z,232
2017-09-04T12:10:03.652Z,224
2017-09-04T12:11:04.269Z,220
2017-09-04T12:12:04.893Z,212
2017-09-04T12:13:05.512Z,208
2017-09-04T12:14:06.277Z,208
2017-09-04T12:15:06.896Z,208
2017-09-04T12:16:07.519Z,208
2017-09-04T12:17:08.167Z,208
2017-09-04T12:18:08.785Z,208
2017-09-04T12:19:09.551Z,208
2017-09-04T12:20:10.170Z,208
2017-09-04T12:21:10.817Z,204
2017-09-04T12:22:11.435Z,204
2017-09-04T12:23:12.055Z,204
2017-09-04T12:24:12.874Z,208
2017-09-04T12:25:13.527Z,212
2017-09-04T12:26:14.112Z,212
2017-09-04T12:27:14.732Z,216
2017-09-04T12:28:15.383Z,220
2017-09-04T12:29:16.150Z,220
2017-09-04T12:30:16.807Z,216
2017-09-04T12:31:17.422Z,220
2017-09-04T12:32:18.039Z,216
2017-09-04T12:33:18.663Z,216
2017-09-04T12:34:19.428Z,220
2017-09-04T12:35:20.046Z,228
2017-09-04T12:36:20.665Z,244
2017-09-04T12:37:21.283Z,252
2017-09-04T12:38:21.903Z,252
2017-09-04T12:39:22.554Z,260
2017-09-04T12:40:23.177Z,272
2017-09-04T12:41:23.800Z,280
2017-09-04T12:42:24.415Z,276
2017-09-04T12:43:25.182Z,260
2017-09-04T12:44:25.808Z,260
2017-09-04T12:45:26.422Z,268
2017-09-04T12:46:27.041Z,268
2017-09-04T12:47:27.657Z,256
2017-09-04T12:48:28.427Z,244
2017-09-04T12:49:29.046Z,232
2017-09-04T12:50:29.666Z,228
2017-09-04T12:51:30.288Z,232
2017-09-04T12:52:30.910Z,232
2017-09-04T12:53:31.709Z,224
2017-09-04T12:54:32.328Z,220
2017-09-04T12:55:32.946Z,216
2017-09-04T12:56:33.564Z,216
2017-09-04T12:57:34.184Z,212
2017-09-04T12:58:34.954Z,208
2017-09-04T12:59:35.605Z,200
2017-09-04T13:00:36.254Z,200
2017-09-04T13:01:36.874Z,196
2017-09-04T13:02:37.493Z,192
2017-09-04T13:03:38.261Z,180
2017-09-04T13:04:38.881Z,180
2017-09-04T13:05:39.497Z,176
2017-09-04T13:06:40.117Z,180
2017-09-04T13:07:40.733Z,180
2017-09-04T13:08:41.503Z,180
2017-09-04T13:09:42.126Z,180
2017-09-04T13:10:42.739Z,184
2017-09-04T13:11:43.358Z,200
2017-09-04T13:12:43.975Z,212
2017-09-04T13:13:44.743Z,216
2017-09-04T13:14:45.362Z,216
2017-09-04T13:15:45.980Z,208
2017-09-04T13:16:46.597Z,204
2017-09-04T13:17:47.221Z,204
2017-09-04T13:18:48.021Z,204
2017-09-04T13:19:48.638Z,208
2017-09-04T13:20:49.260Z,204
2017-09-04T13:21:49.884Z,200
2017-09-04T13:22:50.540Z,200
2017-09-04T13:23:51.306Z,200
2017-09-04T13:24:51.926Z,196
2017-09-04T13:25:52.544Z,196
2017-09-04T13:26:53.168Z,192
2017-09-04T13:27:53.787Z,184
2017-09-04T13:28:54.561Z,184
2017-09-04T13:29:55.179Z,184
2017-09-04T13:30:55.802Z,188
2017-09-04T13:31:56.422Z,188
2017-09-04T13:32:57.039Z,188
2017-09-04T13:33:57.808Z,192
2017-09-04T13:34:58.425Z,196
2017-09-04T13:35:59.045Z,208
2017-09-04T13:36:59.664Z,220
2017-09-04T13:38:00.315Z,232
2017-09-04T13:39:01.083Z,232
2017-09-04T13:40:01.702Z,232
2017-09-04T13:41:02.323Z,228
2017-09-04T13:42:02.972Z,216
2017-09-04T13:43:03.590Z,200
2017-09-04T13:44:04.457Z,196
2017-09-04T13:45:05.075Z,192
2017-09-04T13:46:05.700Z,196
2017-09-04T13:47:06.320Z,208
2017-09-04T13:48:06.936Z,212
2017-09-04T13:49:07.703Z,212
2017-09-04T13:50:08.354Z,208
2017-09-04T13:51:08.973Z,208
2017-09-04T13:52:09.588Z,208
2017-09-04T13:53:10.206Z,208
2017-09-04T13:54:10.825Z,220
2017-09-04T13:55:11.444Z,244
2017-09-04T13:56:12.211Z,236
2017-09-04T13:57:12.831Z,232
2017-09-04T13:58:13.448Z,232
2017-09-04T13:59:14.065Z,228
2017-09-04T14:00:14.684Z,224
2017-09-04T14:01:15.458Z,220
2017-09-04T14:02:16.112Z,232
2017-09-04T14:03:16.726Z,252
2017-09-04T14:04:17.382Z,312
2017-09-04T14:05:18.000Z,264
2017-09-04T14:06:18.766Z,240
2017-09-04T14:07:19.386Z,224
2017-09-04T14:08:20.005Z,224
2017-09-04T14:09:20.624Z,240
2017-09-04T14:10:21.252Z,264
2017-09-04T14:11:22.047Z,300
2017-09-04T14:12:22.667Z,408
2017-09-04T14:13:23.289Z,292
2017-09-04T14:14:23.906Z,276
2017-09-04T14:15:24.529Z,272
2017-09-04T14:16:25.295Z,272
2017-09-04T14:17:25.922Z,296
2017-09-04T14:18:26.538Z,300
2017-09-04T14:19:27.156Z,272
2017-09-04T14:20:27.776Z,264